sensor_id;sensor_type;location;lat;lon;timestamp;pressure;altitude;pressure_sealevel;temperature;humidity
52137;BME280;69622;49.570;10.986;2024-01-27T00:01:29;99927.38;;;3.42;100.00
52137;BME280;69622;49.570;10.986;2024-01-27T00:04:30;99929.88;;;3.45;100.00
52137;BME280;69622;49.570;10.986;2024-01-27T00:07:32;99920.06;;;3.62;100.00
52137;BME280;69622;49.570;10.986;2024-01-27T00:10:34;99928.25;;;3.41;100.00
52137;BME280;69622;49.570;10.986;2024-01-27T00:13:35;99926.31;;;3.52;100.00
52137;BME280;69622;49.570;10.986;2024-01-27T00:16:37;99925.91;;;3.32;100.00
52137;BME280;69622;49.570;10.986;2024-01-27T00:19:38;99929.22;;;3.37;100.00
52137;BME280;69622;49.570;10.986;2024-01-27T00:22:42;99929.81;;;3.49;100.00
52137;BME280;69622;49.570;10.986;2024-01-27T00:25:43;99935.16;;;3.39;100.00
52137;BME280;69622;49.570;10.986;2024-01-27T00:28:44;99939.56;;;3.34;100.00
52137;BME280;69622;49.570;10.986;2024-01-27T00:31:46;99944.19;;;3.16;100.00
52137;BME280;69622;49.570;10.986;2024-01-27T00:34:47;99943.31;;;3.17;100.00
52137;BME280;69622;49.570;10.986;2024-01-27T00:37:49;99946.63;;;3.22;100.00
52137;BME280;69622;49.570;10.986;2024-01-27T00:40:50;99951.88;;;3.18;100.00
52137;BME280;69622;49.570;10.986;2024-01-27T00:43:52;99956.25;;;3.13;100.00
52137;BME280;69622;49.570;10.986;2024-01-27T00:46:53;99955.69;;;2.97;100.00
52137;BME280;69622;49.570;10.986;2024-01-27T00:49:55;99957.50;;;2.92;100.00
52137;BME280;69622;49.570;10.986;2024-01-27T00:52:56;99954.25;;;2.81;100.00
52137;BME280;69622;49.570;10.986;2024-01-27T00:55:59;99957.81;;;2.75;100.00
52137;BME280;69622;49.570;10.986;2024-01-27T00:59:01;99962.94;;;2.75;100.00
52137;BME280;69622;49.570;10.986;2024-01-27T01:02:03;99965.34;;;2.83;100.00
52137;BME280;69622;49.570;10.986;2024-01-27T01:05:04;99966.31;;;2.77;100.00
52137;BME280;69622;49.570;10.986;2024-01-27T01:08:06;99971.34;;;2.83;100.00
52137;BME280;69622;49.570;10.986;2024-01-27T01:11:08;99978.38;;;2.74;100.00
52137;BME280;69622;49.570;10.986;2024-01-27T01:14:09;99983.28;;;2.87;100.00
52137;BME280;69622;49.570;10.986;2024-01-27T01:17:12;99986.06;;;2.75;100.00
52137;BME280;69622;49.570;10.986;2024-01-27T01:20:14;99992.97;;;2.72;100.00
52137;BME280;69622;49.570;10.986;2024-01-27T01:23:15;99991.25;;;2.72;100.00
52137;BME280;69622;49.570;10.986;2024-01-27T01:26:16;100000.75;;;2.65;100.00
52137;BME280;69622;49.570;10.986;2024-01-27T01:29:18;99997.38;;;2.63;100.00
52137;BME280;69622;49.570;10.986;2024-01-27T01:32:19;100006.47;;;2.83;100.00
52137;BME280;69622;49.570;10.986;2024-01-27T01:35:21;99999.88;;;2.69;100.00
52137;BME280;69622;49.570;10.986;2024-01-27T01:38:22;99995.72;;;2.61;100.00
52137;BME280;69622;49.570;10.986;2024-01-27T01:41:24;100001.59;;;2.66;100.00
52137;BME280;69622;49.570;10.986;2024-01-27T01:44:30;100013.28;;;2.84;100.00
52137;BME280;69622;49.570;10.986;2024-01-27T01:47:32;100014.41;;;2.67;100.00
52137;BME280;69622;49.570;10.986;2024-01-27T01:50:35;100012.69;;;2.69;100.00
52137;BME280;69622;49.570;10.986;2024-01-27T01:53:36;100021.22;;;2.72;100.00
52137;BME280;69622;49.570;10.986;2024-01-27T01:56:38;100008.34;;;2.73;100.00
52137;BME280;69622;49.570;10.986;2024-01-27T01:59:40;100012.75;;;2.65;100.00
52137;BME280;69622;49.570;10.986;2024-01-27T02:02:45;100023.13;;;2.60;100.00
52137;BME280;69622;49.570;10.986;2024-01-27T02:05:47;100026.50;;;2.62;100.00
52137;BME280;69622;49.570;10.986;2024-01-27T02:08:48;100027.34;;;2.63;100.00
52137;BME280;69622;49.570;10.986;2024-01-27T02:11:50;100028.97;;;2.67;100.00
52137;BME280;69622;49.570;10.986;2024-01-27T02:14:52;100026.41;;;2.68;100.00
52137;BME280;69622;49.570;10.986;2024-01-27T02:17:54;100034.13;;;2.67;100.00
52137;BME280;69622;49.570;10.986;2024-01-27T02:20:55;100033.28;;;2.66;100.00
52137;BME280;69622;49.570;10.986;2024-01-27T02:23:57;100041.84;;;2.65;100.00
52137;BME280;69622;49.570;10.986;2024-01-27T02:26:59;100042.06;;;2.53;100.00
52137;BME280;69622;49.570;10.986;2024-01-27T02:30:00;100037.63;;;2.63;100.00
52137;BME280;69622;49.570;10.986;2024-01-27T02:33:03;100044.81;;;2.41;100.00
52137;BME280;69622;49.570;10.986;2024-01-27T02:36:05;100044.94;;;2.32;100.00
52137;BME280;69622;49.570;10.986;2024-01-27T02:39:06;100046.63;;;2.33;100.00
52137;BME280;69622;49.570;10.986;2024-01-27T02:42:08;100053.56;;;2.28;100.00
52137;BME280;69622;49.570;10.986;2024-01-27T02:45:10;100066.47;;;2.23;100.00
52137;BME280;69622;49.570;10.986;2024-01-27T02:48:14;100067.34;;;2.22;100.00
52137;BME280;69622;49.570;10.986;2024-01-27T02:51:19;100084.47;;;2.19;100.00
52137;BME280;69622;49.570;10.986;2024-01-27T02:54:22;100081.03;;;2.21;100.00
52137;BME280;69622;49.570;10.986;2024-01-27T02:57:23;100086.28;;;2.12;100.00
52137;BME280;69622;49.570;10.986;2024-01-27T03:00:25;100077.66;;;2.18;100.00
52137;BME280;69622;49.570;10.986;2024-01-27T03:03:26;100075.31;;;2.01;100.00
52137;BME280;69622;49.570;10.986;2024-01-27T03:06:28;100072.94;;;1.86;100.00
52137;BME280;69622;49.570;10.986;2024-01-27T03:09:30;100066.16;;;1.82;100.00
52137;BME280;69622;49.570;10.986;2024-01-27T03:12:32;100076.34;;;1.86;100.00
52137;BME280;69622;49.570;10.986;2024-01-27T03:15:34;100079.94;;;1.71;100.00
52137;BME280;69622;49.570;10.986;2024-01-27T03:18:35;100079.00;;;1.80;100.00
52137;BME280;69622;49.570;10.986;2024-01-27T03:21:38;100081.63;;;1.72;100.00
52137;BME280;69622;49.570;10.986;2024-01-27T03:24:39;100086.94;;;1.56;100.00
52137;BME280;69622;49.570;10.986;2024-01-27T03:27:41;100097.03;;;1.71;100.00
52137;BME280;69622;49.570;10.986;2024-01-27T03:30:43;100086.75;;;1.72;100.00
52137;BME280;69622;49.570;10.986;2024-01-27T03:33:44;100099.72;;;1.62;100.00
52137;BME280;69622;49.570;10.986;2024-01-27T03:36:49;100097.78;;;1.82;100.00
52137;BME280;69622;49.570;10.986;2024-01-27T03:39:50;100105.59;;;1.70;100.00
52137;BME280;69622;49.570;10.986;2024-01-27T03:42:52;100115.84;;;1.70;100.00
52137;BME280;69622;49.570;10.986;2024-01-27T03:45:54;100110.94;;;1.52;100.00
52137;BME280;69622;49.570;10.986;2024-01-27T03:48:55;100114.19;;;1.66;100.00
52137;BME280;69622;49.570;10.986;2024-01-27T03:51:57;100117.59;;;1.66;100.00
52137;BME280;69622;49.570;10.986;2024-01-27T03:54:59;100121.81;;;1.70;100.00
52137;BME280;69622;49.570;10.986;2024-01-27T03:58:00;100123.63;;;1.64;100.00
52137;BME280;69622;49.570;10.986;2024-01-27T04:01:02;100132.25;;;1.58;100.00
52137;BME280;69622;49.570;10.986;2024-01-27T04:04:06;100139.91;;;1.60;100.00
52137;BME280;69622;49.570;10.986;2024-01-27T04:07:08;100136.50;;;1.56;100.00
52137;BME280;69622;49.570;10.986;2024-01-27T04:10:10;100145.06;;;1.58;100.00
52137;BME280;69622;49.570;10.986;2024-01-27T04:13:12;100142.56;;;1.49;100.00
52137;BME280;69622;49.570;10.986;2024-01-27T04:16:13;100155.34;;;1.54;100.00
52137;BME280;69622;49.570;10.986;2024-01-27T04:19:14;100145.03;;;1.57;100.00
52137;BME280;69622;49.570;10.986;2024-01-27T04:22:16;100150.19;;;1.57;100.00
52137;BME280;69622;49.570;10.986;2024-01-27T04:25:18;100139.19;;;1.47;100.00
52137;BME280;69622;49.570;10.986;2024-01-27T04:28:19;100140.84;;;1.49;100.00
52137;BME280;69622;49.570;10.986;2024-01-27T04:31:21;100137.53;;;1.40;100.00
52137;BME280;69622;49.570;10.986;2024-01-27T04:34:22;100140.97;;;1.37;100.00
52137;BME280;69622;49.570;10.986;2024-01-27T04:37:24;100140.06;;;1.44;100.00
52137;BME280;69622;49.570;10.986;2024-01-27T04:40:25;100145.19;;;1.44;100.00
52137;BME280;69622;49.570;10.986;2024-01-27T04:43:27;100148.56;;;1.49;100.00
52137;BME280;69622;49.570;10.986;2024-01-27T04:46:28;100146.00;;;1.48;100.00
52137;BME280;69622;49.570;10.986;2024-01-27T04:49:30;100150.28;;;1.47;100.00
52137;BME280;69622;49.570;10.986;2024-01-27T04:52:31;100159.63;;;1.52;100.00
52137;BME280;69622;49.570;10.986;2024-01-27T04:55:33;100163.88;;;1.54;100.00
52137;BME280;69622;49.570;10.986;2024-01-27T04:58:34;100171.56;;;1.54;100.00
52137;BME280;69622;49.570;10.986;2024-01-27T05:01:36;100165.59;;;1.54;100.00
52137;BME280;69622;49.570;10.986;2024-01-27T05:04:37;100163.16;;;1.43;100.00
52137;BME280;69622;49.570;10.986;2024-01-27T05:07:39;100167.38;;;1.47;100.00
52137;BME280;69622;49.570;10.986;2024-01-27T05:10:41;100181.06;;;1.44;100.00
52137;BME280;69622;49.570;10.986;2024-01-27T05:13:42;100171.75;;;1.36;100.00
52137;BME280;69622;49.570;10.986;2024-01-27T05:16:44;100171.81;;;1.25;100.00
52137;BME280;69622;49.570;10.986;2024-01-27T05:19:46;100174.47;;;1.16;100.00
52137;BME280;69622;49.570;10.986;2024-01-27T05:22:48;100181.41;;;1.03;100.00
52137;BME280;69622;49.570;10.986;2024-01-27T05:25:49;100181.47;;;0.96;100.00
52137;BME280;69622;49.570;10.986;2024-01-27T05:28:50;100179.84;;;0.78;100.00
52137;BME280;69622;49.570;10.986;2024-01-27T05:31:52;100185.03;;;0.69;100.00
52137;BME280;69622;49.570;10.986;2024-01-27T05:34:53;100197.81;;;0.73;100.00
52137;BME280;69622;49.570;10.986;2024-01-27T05:37:56;100195.22;;;0.75;100.00
52137;BME280;69622;49.570;10.986;2024-01-27T05:41:01;100200.38;;;0.70;100.00
52137;BME280;69622;49.570;10.986;2024-01-27T05:44:02;100192.78;;;0.58;100.00
52137;BME280;69622;49.570;10.986;2024-01-27T05:47:04;100203.00;;;0.61;100.00
52137;BME280;69622;49.570;10.986;2024-01-27T05:50:09;100204.72;;;0.59;100.00
52137;BME280;69622;49.570;10.986;2024-01-27T05:53:10;100208.13;;;0.59;100.00
52137;BME280;69622;49.570;10.986;2024-01-27T05:56:12;100211.53;;;0.60;100.00
52137;BME280;69622;49.570;10.986;2024-01-27T05:59:13;100208.09;;;0.61;100.00
52137;BME280;69622;49.570;10.986;2024-01-27T06:02:14;100216.69;;;0.54;100.00
52137;BME280;69622;49.570;10.986;2024-01-27T06:05:19;100213.28;;;0.53;100.00
52137;BME280;69622;49.570;10.986;2024-01-27T06:08:20;100215.84;;;0.52;100.00
52137;BME280;69622;49.570;10.986;2024-01-27T06:11:25;100218.44;;;0.44;100.00
52137;BME280;69622;49.570;10.986;2024-01-27T06:14:27;100219.31;;;0.40;100.00
52137;BME280;69622;49.570;10.986;2024-01-27T06:17:28;100222.75;;;0.28;100.00
52137;BME280;69622;49.570;10.986;2024-01-27T06:20:30;100220.25;;;0.18;100.00
52137;BME280;69622;49.570;10.986;2024-01-27T06:23:31;100221.97;;;0.17;100.00
52137;BME280;69622;49.570;10.986;2024-01-27T06:26:33;100216.81;;;0.20;100.00
52137;BME280;69622;49.570;10.986;2024-01-27T06:29:34;100235.53;;;0.32;100.00
52137;BME280;69622;49.570;10.986;2024-01-27T06:32:36;100235.53;;;0.28;100.00
52137;BME280;69622;49.570;10.986;2024-01-27T06:35:38;100228.75;;;0.26;100.00
52137;BME280;69622;49.570;10.986;2024-01-27T06:38:39;100234.69;;;0.29;100.00
52137;BME280;69622;49.570;10.986;2024-01-27T06:41:41;100238.94;;;0.30;100.00
52137;BME280;69622;49.570;10.986;2024-01-27T06:44:42;100233.00;;;0.28;100.00
52137;BME280;69622;49.570;10.986;2024-01-27T06:47:43;100238.16;;;0.16;100.00
52137;BME280;69622;49.570;10.986;2024-01-27T06:50:45;100244.97;;;0.17;100.00
52137;BME280;69622;49.570;10.986;2024-01-27T06:53:46;100239.03;;;0.09;100.00
52137;BME280;69622;49.570;10.986;2024-01-27T06:56:49;100246.69;;;0.09;100.00
52137;BME280;69622;49.570;10.986;2024-01-27T06:59:52;100255.22;;;0.07;100.00
52137;BME280;69622;49.570;10.986;2024-01-27T07:02:54;100262.06;;;0.02;100.00
52137;BME280;69622;49.570;10.986;2024-01-27T07:05:57;100254.41;;;0.00;100.00
52137;BME280;69622;49.570;10.986;2024-01-27T07:09:02;100252.69;;;-0.03;100.00
52137;BME280;69622;49.570;10.986;2024-01-27T07:12:04;100250.97;;;0.04;100.00
52137;BME280;69622;49.570;10.986;2024-01-27T07:15:05;100260.31;;;0.11;100.00
52137;BME280;69622;49.570;10.986;2024-01-27T07:18:07;100261.16;;;0.13;100.00
52137;BME280;69622;49.570;10.986;2024-01-27T07:21:14;100262.00;;;0.15;100.00
52137;BME280;69622;49.570;10.986;2024-01-27T07:24:16;100269.69;;;0.15;100.00
52137;BME280;69622;49.570;10.986;2024-01-27T07:27:18;100279.06;;;0.15;100.00
52137;BME280;69622;49.570;10.986;2024-01-27T07:30:20;100277.41;;;0.06;100.00
52137;BME280;69622;49.570;10.986;2024-01-27T07:33:22;100284.22;;;-0.01;100.00
52137;BME280;69622;49.570;10.986;2024-01-27T07:36:23;100291.06;;;0.02;100.00
52137;BME280;69622;49.570;10.986;2024-01-27T07:39:25;100294.44;;;-0.02;100.00
52137;BME280;69622;49.570;10.986;2024-01-27T07:42:26;100288.47;;;-0.01;100.00
52137;BME280;69622;49.570;10.986;2024-01-27T07:45:28;100290.19;;;-0.05;100.00
52137;BME280;69622;49.570;10.986;2024-01-27T07:48:29;100292.78;;;-0.27;100.00
52137;BME280;69622;49.570;10.986;2024-01-27T07:51:31;100292.78;;;-0.38;100.00
52137;BME280;69622;49.570;10.986;2024-01-27T07:54:33;100305.56;;;-0.23;100.00
52137;BME280;69622;49.570;10.986;2024-01-27T07:57:40;100312.38;;;-0.20;100.00
52137;BME280;69622;49.570;10.986;2024-01-27T08:00:41;100304.69;;;-0.23;100.00
52137;BME280;69622;49.570;10.986;2024-01-27T08:03:43;100311.50;;;-0.24;100.00
52137;BME280;69622;49.570;10.986;2024-01-27T08:06:48;100306.38;;;-0.03;100.00
52137;BME280;69622;49.570;10.986;2024-01-27T08:09:51;100308.94;;;-0.07;100.00
52137;BME280;69622;49.570;10.986;2024-01-27T08:12:52;100306.38;;;-0.06;100.00
52137;BME280;69622;49.570;10.986;2024-01-27T08:15:54;100302.13;;;-0.10;100.00
52137;BME280;69622;49.570;10.986;2024-01-27T08:18:55;100314.91;;;-0.02;100.00
52137;BME280;69622;49.570;10.986;2024-01-27T08:21:57;100304.69;;;-0.10;100.00
52137;BME280;69622;49.570;10.986;2024-01-27T08:24:58;100314.06;;;-0.07;100.00
52137;BME280;69622;49.570;10.986;2024-01-27T08:28:00;100315.75;;;0.12;100.00
52137;BME280;69622;49.570;10.986;2024-01-27T08:31:01;100314.06;;;0.10;100.00
52137;BME280;69622;49.570;10.986;2024-01-27T08:34:03;100318.34;;;0.03;100.00
52137;BME280;69622;49.570;10.986;2024-01-27T08:37:14;100320.00;;;0.13;100.00
52137;BME280;69622;49.570;10.986;2024-01-27T08:40:17;100314.88;;;0.25;100.00
52137;BME280;69622;49.570;10.986;2024-01-27T08:43:19;100319.09;;;0.40;100.00
52137;BME280;69622;49.570;10.986;2024-01-27T08:46:20;100324.25;;;0.16;100.00
52137;BME280;69622;49.570;10.986;2024-01-27T08:49:23;100331.06;;;0.40;100.00
52137;BME280;69622;49.570;10.986;2024-01-27T08:52:25;100323.34;;;0.53;100.00
52137;BME280;69622;49.570;10.986;2024-01-27T08:55:26;100319.94;;;0.47;100.00
52137;BME280;69622;49.570;10.986;2024-01-27T08:58:28;100331.03;;;0.41;100.00
52137;BME280;69622;49.570;10.986;2024-01-27T09:01:29;100336.13;;;0.55;100.00
52137;BME280;69622;49.570;10.986;2024-01-27T09:04:31;100346.28;;;0.84;100.00
52137;BME280;69622;49.570;10.986;2024-01-27T09:07:33;100347.88;;;1.06;100.00
52137;BME280;69622;49.570;10.986;2024-01-27T09:10:35;100354.81;;;0.78;100.00
52137;BME280;69622;49.570;10.986;2024-01-27T09:13:36;100356.47;;;0.98;100.00
52137;BME280;69622;49.570;10.986;2024-01-27T09:16:38;100345.47;;;0.73;100.00
52137;BME280;69622;49.570;10.986;2024-01-27T09:19:42;100347.91;;;1.05;100.00
52137;BME280;69622;49.570;10.986;2024-01-27T09:22:43;100334.81;;;1.52;100.00
52137;BME280;69622;49.570;10.986;2024-01-27T09:25:48;100341.03;;;1.07;100.00
52137;BME280;69622;49.570;10.986;2024-01-27T09:28:50;100342.44;;;1.63;100.00
52137;BME280;69622;49.570;10.986;2024-01-27T09:31:57;100343.47;;;1.33;100.00
52137;BME280;69622;49.570;10.986;2024-01-27T09:34:58;100348.25;;;1.86;100.00
52137;BME280;69622;49.570;10.986;2024-01-27T09:38:00;100344.66;;;2.08;100.00
52137;BME280;69622;49.570;10.986;2024-01-27T09:41:02;100352.22;;;2.21;100.00
52137;BME280;69622;49.570;10.986;2024-01-27T09:44:04;100336.25;;;1.88;100.00
52137;BME280;69622;49.570;10.986;2024-01-27T09:47:06;100335.81;;;2.38;100.00
52137;BME280;69622;49.570;10.986;2024-01-27T09:50:11;100337.13;;;2.73;100.00
52137;BME280;69622;49.570;10.986;2024-01-27T09:53:13;100336.41;;;2.60;100.00
52137;BME280;69622;49.570;10.986;2024-01-27T09:56:15;100339.81;;;2.62;100.00
52137;BME280;69622;49.570;10.986;2024-01-27T09:59:20;100346.16;;;3.06;100.00
52137;BME280;69622;49.570;10.986;2024-01-27T10:02:24;100344.44;;;3.05;100.00
52137;BME280;69622;49.570;10.986;2024-01-27T10:05:31;100344.56;;;2.94;100.00
52137;BME280;69622;49.570;10.986;2024-01-27T10:08:33;100347.19;;;2.91;100.00
52137;BME280;69622;49.570;10.986;2024-01-27T10:11:36;100348.03;;;2.92;100.00
52137;BME280;69622;49.570;10.986;2024-01-27T10:14:40;100345.50;;;2.90;100.00
52137;BME280;69622;49.570;10.986;2024-01-27T10:17:42;100338.75;;;3.45;100.00
52137;BME280;69622;49.570;10.986;2024-01-27T10:20:44;100325.94;;;3.42;100.00
52137;BME280;69622;49.570;10.986;2024-01-27T10:23:46;100336.63;;;3.13;100.00
52137;BME280;69622;49.570;10.986;2024-01-27T10:26:48;100337.56;;;3.07;100.00
52137;BME280;69622;49.570;10.986;2024-01-27T10:29:55;100327.19;;;3.13;100.00
52137;BME280;69622;49.570;10.986;2024-01-27T10:32:57;100320.91;;;3.36;100.00
52137;BME280;69622;49.570;10.986;2024-01-27T10:35:59;100321.50;;;3.53;100.00
52137;BME280;69622;49.570;10.986;2024-01-27T10:39:01;100323.31;;;3.46;100.00
52137;BME280;69622;49.570;10.986;2024-01-27T10:42:02;100321.34;;;4.16;100.00
52137;BME280;69622;49.570;10.986;2024-01-27T10:45:05;100317.41;;;3.94;100.00
52137;BME280;69622;49.570;10.986;2024-01-27T10:48:08;100316.16;;;4.17;100.00
52137;BME280;69622;49.570;10.986;2024-01-27T10:51:16;100321.16;;;4.25;100.00
52137;BME280;69622;49.570;10.986;2024-01-27T10:54:26;100315.75;;;4.39;100.00
52137;BME280;69622;49.570;10.986;2024-01-27T10:57:30;100317.75;;;4.23;100.00
52137;BME280;69622;49.570;10.986;2024-01-27T11:00:32;100310.47;;;4.00;100.00
52137;BME280;69622;49.570;10.986;2024-01-27T11:03:37;100315.97;;;4.28;100.00
52137;BME280;69622;49.570;10.986;2024-01-27T11:06:40;100316.19;;;4.16;100.00
52137;BME280;69622;49.570;10.986;2024-01-27T11:09:43;100312.50;;;4.75;100.00
52137;BME280;69622;49.570;10.986;2024-01-27T11:12:47;100316.72;;;4.33;100.00
52137;BME280;69622;49.570;10.986;2024-01-27T11:15:53;100314.16;;;4.33;100.00
52137;BME280;69622;49.570;10.986;2024-01-27T11:18:55;100309.16;;;4.24;100.00
52137;BME280;69622;49.570;10.986;2024-01-27T11:22:03;100309.69;;;4.41;100.00
52137;BME280;69622;49.570;10.986;2024-01-27T11:28:15;100306.28;;;4.84;100.00
52137;BME280;69622;49.570;10.986;2024-01-27T11:31:19;100307.56;;;4.63;100.00
52137;BME280;69622;49.570;10.986;2024-01-27T11:34:21;100313.78;;;4.53;100.00
52137;BME280;69622;49.570;10.986;2024-01-27T11:37:23;100311.13;;;4.56;100.00
52137;BME280;69622;49.570;10.986;2024-01-27T11:40:27;100313.47;;;4.68;100.00
52137;BME280;69622;49.570;10.986;2024-01-27T11:43:30;100322.81;;;4.75;100.00
52137;BME280;69622;49.570;10.986;2024-01-27T11:46:31;100309.63;;;4.89;100.00
52137;BME280;69622;49.570;10.986;2024-01-27T11:49:33;100309.59;;;4.91;100.00
52137;BME280;69622;49.570;10.986;2024-01-27T11:52:34;100296.56;;;4.97;100.00
52137;BME280;69622;49.570;10.986;2024-01-27T11:55:37;100305.41;;;4.85;100.00
52137;BME280;69622;49.570;10.986;2024-01-27T11:58:48;100306.66;;;5.07;100.00
52137;BME280;69622;49.570;10.986;2024-01-27T12:01:50;100301.38;;;4.73;100.00
52137;BME280;69622;49.570;10.986;2024-01-27T12:04:52;100297.72;;;5.24;100.00
52137;BME280;69622;49.570;10.986;2024-01-27T12:07:54;100296.13;;;5.17;100.00
52137;BME280;69622;49.570;10.986;2024-01-27T12:10:55;100287.66;;;4.71;100.00
52137;BME280;69622;49.570;10.986;2024-01-27T12:13:57;100282.41;;;4.76;100.00
52137;BME280;69622;49.570;10.986;2024-01-27T12:16:58;100302.75;;;4.88;100.00
52137;BME280;69622;49.570;10.986;2024-01-27T12:20:00;100297.22;;;5.08;100.00
52137;BME280;69622;49.570;10.986;2024-01-27T12:23:05;100289.28;;;5.16;100.00
52137;BME280;69622;49.570;10.986;2024-01-27T12:26:13;100293.75;;;5.09;100.00
52137;BME280;69622;49.570;10.986;2024-01-27T12:29:15;100292.44;;;4.88;100.00
52137;BME280;69622;49.570;10.986;2024-01-27T12:32:17;100295.34;;;5.15;100.00
52137;BME280;69622;49.570;10.986;2024-01-27T12:35:19;100297.88;;;4.76;100.00
52137;BME280;69622;49.570;10.986;2024-01-27T12:38:22;100294.91;;;4.94;100.00
52137;BME280;69622;49.570;10.986;2024-01-27T12:41:27;100299.59;;;5.16;100.00
52137;BME280;69622;49.570;10.986;2024-01-27T12:44:29;100293.56;;;5.17;100.00
52137;BME280;69622;49.570;10.986;2024-01-27T12:47:30;100295.53;;;5.05;100.00
52137;BME280;69622;49.570;10.986;2024-01-27T12:50:32;100291.63;;;5.26;100.00
52137;BME280;69622;49.570;10.986;2024-01-27T12:53:35;100295.41;;;5.11;100.00
52137;BME280;69622;49.570;10.986;2024-01-27T12:56:36;100291.38;;;4.98;100.00
52137;BME280;69622;49.570;10.986;2024-01-27T12:59:38;100287.41;;;5.24;100.00
52137;BME280;69622;49.570;10.986;2024-01-27T13:02:39;100289.84;;;5.30;100.00
52137;BME280;69622;49.570;10.986;2024-01-27T13:05:41;100294.47;;;5.14;100.00
52137;BME280;69622;49.570;10.986;2024-01-27T13:08:43;100297.56;;;5.30;100.00
52137;BME280;69622;49.570;10.986;2024-01-27T13:11:44;100297.00;;;5.91;100.00
52137;BME280;69622;49.570;10.986;2024-01-27T13:14:46;100301.88;;;5.66;100.00
52137;BME280;69622;49.570;10.986;2024-01-27T13:17:48;100304.81;;;5.51;100.00
52137;BME280;69622;49.570;10.986;2024-01-27T13:20:49;100295.91;;;5.27;100.00
52137;BME280;69622;49.570;10.986;2024-01-27T13:23:51;100295.75;;;5.33;100.00
52137;BME280;69622;49.570;10.986;2024-01-27T13:26:54;100297.03;;;5.90;100.00
52137;BME280;69622;49.570;10.986;2024-01-27T13:29:55;100291.41;;;6.08;100.00
52137;BME280;69622;49.570;10.986;2024-01-27T13:32:57;100290.22;;;5.86;100.00
52137;BME280;69622;49.570;10.986;2024-01-27T13:35:59;100292.56;;;5.96;100.00
52137;BME280;69622;49.570;10.986;2024-01-27T13:39:00;100290.81;;;5.97;100.00
52137;BME280;69622;49.570;10.986;2024-01-27T13:42:02;100284.97;;;5.90;100.00
52137;BME280;69622;49.570;10.986;2024-01-27T13:45:04;100276.06;;;6.02;100.00
52137;BME280;69622;49.570;10.986;2024-01-27T13:48:07;100264.78;;;6.06;100.00
52137;BME280;69622;49.570;10.986;2024-01-27T13:51:09;100265.78;;;6.00;100.00
52137;BME280;69622;49.570;10.986;2024-01-27T13:54:11;100255.00;;;5.83;100.00
52137;BME280;69622;49.570;10.986;2024-01-27T13:57:15;100252.03;;;5.98;100.00
52137;BME280;69622;49.570;10.986;2024-01-27T14:00:17;100244.34;;;5.97;100.00
52137;BME280;69622;49.570;10.986;2024-01-27T14:03:18;100245.81;;;5.73;100.00
52137;BME280;69622;49.570;10.986;2024-01-27T14:06:20;100241.94;;;5.18;100.00
52137;BME280;69622;49.570;10.986;2024-01-27T14:09:23;100235.44;;;5.75;100.00
52137;BME280;69622;49.570;10.986;2024-01-27T14:12:25;100237.28;;;5.34;100.00
52137;BME280;69622;49.570;10.986;2024-01-27T14:15:27;100239.84;;;5.71;100.00
52137;BME280;69622;49.570;10.986;2024-01-27T14:18:28;100242.03;;;5.51;100.00
52137;BME280;69622;49.570;10.986;2024-01-27T14:21:30;100238.16;;;5.70;100.00
52137;BME280;69622;49.570;10.986;2024-01-27T14:24:31;100231.88;;;5.45;100.00
52137;BME280;69622;49.570;10.986;2024-01-27T14:27:34;100239.31;;;5.57;100.00
52137;BME280;69622;49.570;10.986;2024-01-27T14:30:36;100239.66;;;5.06;100.00
52137;BME280;69622;49.570;10.986;2024-01-27T14:33:38;100241.97;;;5.17;100.00
52137;BME280;69622;49.570;10.986;2024-01-27T14:36:40;100243.13;;;5.03;100.00
52137;BME280;69622;49.570;10.986;2024-01-27T14:39:45;100244.88;;;5.03;100.00
52137;BME280;69622;49.570;10.986;2024-01-27T14:42:47;100244.88;;;5.03;100.00
52137;BME280;69622;49.570;10.986;2024-01-27T14:45:51;100242.75;;;5.20;100.00
52137;BME280;69622;49.570;10.986;2024-01-27T14:48:52;100224.25;;;5.40;100.00
52137;BME280;69622;49.570;10.986;2024-01-27T14:51:55;100229.38;;;5.04;100.00
52137;BME280;69622;49.570;10.986;2024-01-27T14:54:57;100230.81;;;5.16;100.00
52137;BME280;69622;49.570;10.986;2024-01-27T14:57:59;100235.38;;;5.06;100.00
52137;BME280;69622;49.570;10.986;2024-01-27T15:01:00;100238.06;;;5.00;100.00
52137;BME280;69622;49.570;10.986;2024-01-27T15:04:02;100234.66;;;4.98;100.00
52137;BME280;69622;49.570;10.986;2024-01-27T15:07:03;100227.25;;;4.85;100.00
52137;BME280;69622;49.570;10.986;2024-01-27T15:10:06;100225.94;;;5.04;100.00
52137;BME280;69622;49.570;10.986;2024-01-27T15:13:08;100222.78;;;4.93;100.00
52137;BME280;69622;49.570;10.986;2024-01-27T15:16:10;100225.94;;;5.05;100.00
52137;BME280;69622;49.570;10.986;2024-01-27T15:19:11;100230.63;;;4.87;100.00
52137;BME280;69622;49.570;10.986;2024-01-27T15:22:13;100229.03;;;4.81;100.00
52137;BME280;69622;49.570;10.986;2024-01-27T15:25:14;100229.19;;;4.75;100.00
52137;BME280;69622;49.570;10.986;2024-01-27T15:28:16;100229.19;;;4.75;100.00
52137;BME280;69622;49.570;10.986;2024-01-27T15:31:17;100229.44;;;5.01;100.00
52137;BME280;69622;49.570;10.986;2024-01-27T15:34:19;100235.38;;;4.66;100.00
52137;BME280;69622;49.570;10.986;2024-01-27T15:37:20;100238.09;;;4.60;100.00
52137;BME280;69622;49.570;10.986;2024-01-27T15:40:22;100233.84;;;4.56;100.00
52137;BME280;69622;49.570;10.986;2024-01-27T15:43:27;100231.38;;;4.51;100.00